Time;durP1;ratioP1;P1;durP2;ratioP2;P2;SDS_P1;SDS_P2;PMS_P1;PMS_P2;Temp;Humidity;BMP_temperature;BMP_pressure;BME280_temperature;BME280_humidity;BME280_pressure;Samples;Min_cycle;Max_cycle;Signal;HPM_P1;HPM_P2
2024/03/08 00:31:17;;;;;;;73.57;39.78;;;;;;;0.53;76.06;99227.03;5034725;28;20048;-76
2024/03/08 00:33:42;;;;;;;73.25;40.50;;;;;;;0.59;77.00;99236.84;5038797;28;20033;-76
2024/03/08 00:36:08;;;;;;;66.43;39.38;;;;;;;1.53;75.00;99224.78;5034634;28;20485;-76
2024/03/08 00:38:34;;;;;;;63.20;35.22;;;;;;;2.00;72.88;99234.91;5035697;28;20094;-76
2024/03/08 00:40:59;;;;;;;67.00;38.38;;;;;;;2.35;71.94;99241.19;5037834;28;20448;-76
2024/03/08 00:43:25;;;;;;;64.07;37.92;;;;;;;2.42;71.03;99230.72;5038022;28;20056;-76
2024/03/08 00:45:51;;;;;;;64.30;37.22;;;;;;;2.18;71.86;99232.69;5018585;28;20409;-76
2024/03/08 00:48:16;;;;;;;68.32;35.50;;;;;;;2.14;71.41;99225.38;5033118;28;20025;-77
2024/03/08 00:50:42;;;;;;;59.00;34.53;;;;;;;2.28;71.48;99220.03;5038158;28;20033;-77
2024/03/08 00:53:07;;;;;;;58.03;35.35;;;;;;;1.98;70.91;99217.66;5043786;28;20029;-76
2024/03/08 00:55:33;;;;;;;65.30;37.10;;;;;;;2.45;71.29;99225.88;5042130;28;20029;-76
2024/03/08 00:57:58;;;;;;;63.22;33.70;;;;;;;2.40;70.96;99212.47;5038267;28;20126;-76
2024/03/08 01:00:24;;;;;;;60.92;35.10;;;;;;;2.36;70.75;99213.84;5017318;28;20111;-76
2024/03/08 01:02:49;;;;;;;59.13;36.28;;;;;;;2.43;70.74;99212.09;5027444;28;20041;-76
2024/03/08 01:05:14;;;;;;;65.43;35.72;;;;;;;2.27;70.68;99210.50;5039567;28;20412;-77
2024/03/08 01:07:40;;;;;;;66.70;35.63;;;;;;;2.31;70.65;99213.59;5039168;28;20065;-76
2024/03/08 01:10:12;;;;;;;67.15;35.70;;;;;;;2.18;71.20;99213.47;5023537;28;20040;-77
2024/03/08 01:12:38;;;;;;;59.40;35.90;;;;;;;2.11;71.42;99208.13;5036854;28;20152;-77
2024/03/08 01:15:04;;;;;;;58.70;37.45;;;;;;;2.25;70.88;99198.53;5030480;28;20021;-76
2024/03/08 01:17:30;;;;;;;62.97;35.72;;;;;;;2.25;71.44;99195.88;5031624;28;20112;-77
2024/03/08 01:19:56;;;;;;;65.43;35.65;;;;;;;2.14;71.14;99196.41;5053360;28;20488;-76
2024/03/08 01:22:22;;;;;;;64.13;34.25;;;;;;;1.47;71.16;99183.44;5041652;28;20057;-77
2024/03/08 01:24:48;;;;;;;62.90;35.30;;;;;;;2.00;71.53;99189.34;5035162;28;20045;-76
2024/03/08 01:27:13;;;;;;;61.03;36.92;;;;;;;2.11;71.65;99183.59;5038774;28;20389;-77
2024/03/08 01:29:38;;;;;;;67.43;36.10;;;;;;;1.72;72.51;99188.41;5038207;28;20041;-76
2024/03/08 01:32:04;;;;;;;62.78;36.88;;;;;;;1.99;71.52;99178.00;5029363;28;20541;-77
2024/03/08 01:34:29;;;;;;;64.70;36.42;;;;;;;1.96;71.46;99164.41;5043980;28;20568;-79
2024/03/08 01:36:58;;;;;;;59.13;35.88;;;;;;;1.93;71.20;99156.88;5042769;28;20108;-77
2024/03/08 01:39:23;;;;;;;58.67;34.97;;;;;;;2.02;70.83;99163.66;5045045;28;20037;-78
2024/03/08 01:41:49;;;;;;;58.83;34.53;;;;;;;1.90;71.06;99159.88;5045983;28;20037;-78
2024/03/08 01:44:17;;;;;;;62.70;35.70;;;;;;;1.74;70.93;99149.56;5038003;28;20045;-78
2024/03/08 01:46:44;;;;;;;59.97;34.80;;;;;;;2.03;71.42;99150.28;5045126;28;20028;-77
2024/03/08 01:49:11;;;;;;;61.25;38.33;;;;;;;1.92;70.67;99139.47;5039790;28;20091;-78
2024/03/08 01:51:38;;;;;;;65.03;34.45;;;;;;;1.48;72.20;99144.81;5025719;28;20036;-78
2024/03/08 01:54:04;;;;;;;62.95;35.97;;;;;;;1.45;72.37;99132.00;5047712;28;20117;-78
2024/03/08 01:56:31;;;;;;;66.53;35.65;;;;;;;1.48;73.10;99145.63;5024390;28;20057;-78
2024/03/08 01:58:57;;;;;;;65.40;35.20;;;;;;;1.67;72.14;99143.41;5042583;28;20090;-78
2024/03/08 02:01:23;;;;;;;62.60;35.75;;;;;;;1.76;71.69;99126.50;5042379;28;20056;-78
2024/03/08 02:03:49;;;;;;;66.80;37.53;;;;;;;1.61;72.84;99138.88;5037186;28;20481;-77
2024/03/08 02:06:16;;;;;;;63.38;36.25;;;;;;;1.84;71.29;99134.28;5036588;28;20030;-77
2024/03/08 02:08:45;;;;;;;63.78;37.10;;;;;;;1.82;71.72;99126.59;5029261;28;20058;-78
2024/03/08 02:11:11;;;;;;;68.05;38.40;;;;;;;1.89;71.06;99121.41;5040941;28;20167;-78
2024/03/08 02:13:36;;;;;;;65.63;35.85;;;;;;;1.72;71.26;99109.47;5035442;28;20104;-78
2024/03/08 02:16:02;;;;;;;60.30;34.17;;;;;;;1.86;71.41;99121.75;5040733;28;20025;-77
2024/03/08 02:18:29;;;;;;;67.95;37.97;;;;;;;1.79;71.38;99115.63;5046545;28;20041;-78
2024/03/08 02:20:55;;;;;;;64.30;37.05;;;;;;;1.79;71.37;99107.75;5037701;28;20493;-78
2024/03/08 02:23:22;;;;;;;60.22;35.17;;;;;;;1.69;71.79;99107.19;5040677;28;20028;-77
2024/03/08 02:25:49;;;;;;;68.70;36.85;;;;;;;1.59;71.44;99089.09;5011794;28;20029;-78
2024/03/08 02:28:14;;;;;;;62.90;35.70;;;;;;;1.67;71.54;99088.97;5036050;28;20040;-78
2024/03/08 02:30:40;;;;;;;67.93;36.10;;;;;;;1.73;71.63;99101.38;5034286;28;20021;-78
2024/03/08 02:33:06;;;;;;;71.97;37.80;;;;;;;1.78;71.21;99106.91;5033800;28;20048;-78
2024/03/08 02:35:33;;;;;;;72.20;37.88;;;;;;;1.78;71.32;99099.03;5042118;28;20017;-78
2024/03/08 02:37:59;;;;;;;67.38;35.78;;;;;;;1.75;71.31;99099.38;5040850;28;20036;-77
2024/03/08 02:40:24;;;;;;;57.83;35.85;;;;;;;1.77;71.15;99099.22;5040661;28;20079;-78
2024/03/08 02:42:50;;;;;;;68.38;36.58;;;;;;;1.88;70.99;99098.72;5035758;28;20104;-78
2024/03/08 02:45:15;;;;;;;62.65;35.42;;;;;;;1.84;70.89;99090.38;5037637;28;20025;-77
2024/03/08 02:47:41;;;;;;;65.38;37.45;;;;;;;1.76;70.60;99090.50;5032249;28;20473;-79
2024/03/08 02:50:07;;;;;;;62.28;36.53;;;;;;;1.67;71.02;99096.06;5019379;28;20041;-77
2024/03/08 02:52:35;;;;;;;66.90;36.35;;;;;;;1.58;71.66;99086.63;5034912;28;20040;-77
2024/03/08 02:55:06;;;;;;;66.60;35.15;;;;;;;1.57;71.51;99087.66;5041470;28;20036;-78
2024/03/08 02:57:32;;;;;;;64.93;35.25;;;;;;;1.46;71.54;99092.38;5032465;28;20033;-78
2024/03/08 02:59:59;;;;;;;61.08;35.25;;;;;;;1.45;72.14;99088.13;5049091;28;20028;-78
2024/03/08 03:02:26;;;;;;;61.95;34.90;;;;;;;1.57;71.82;99085.03;5041318;28;20041;-78
2024/03/08 03:04:52;;;;;;;65.20;35.95;;;;;;;1.52;71.96;99070.63;5037604;28;20037;-77
2024/03/08 03:07:17;;;;;;;60.88;34.63;;;;;;;1.60;71.39;99082.81;5038499;28;20074;-78
2024/03/08 03:09:42;;;;;;;60.22;35.28;;;;;;;1.53;72.08;99066.97;5037538;28;20388;-78
2024/03/08 03:12:08;;;;;;;70.15;36.80;;;;;;;1.53;71.80;99061.72;5037127;28;20098;-78
2024/03/08 03:14:38;;;;;;;67.28;37.55;;;;;;;1.64;71.79;99070.13;5040498;28;20029;-78
2024/03/08 03:17:04;;;;;;;65.88;35.80;;;;;;;1.49;71.68;99065.72;5044384;28;20068;-79
2024/03/08 03:19:30;;;;;;;65.18;36.13;;;;;;;1.58;71.46;99070.84;5042173;28;20040;-78
2024/03/08 03:21:55;;;;;;;70.05;36.20;;;;;;;1.44;72.05;99060.19;5036850;28;20601;-78
2024/03/08 03:24:21;;;;;;;69.53;37.45;;;;;;;1.48;72.14;99065.91;5041233;28;20108;-76
2024/03/08 03:26:48;;;;;;;72.45;38.35;;;;;;;1.60;71.72;99067.03;5038031;28;20033;-77
2024/03/08 03:29:13;;;;;;;64.50;35.75;;;;;;;1.39;71.80;99062.56;5040426;28;20032;-78
2024/03/08 03:31:40;;;;;;;65.55;36.75;;;;;;;1.34;71.99;99058.84;5036943;28;20037;-78
2024/03/08 03:34:08;;;;;;;68.85;37.05;;;;;;;1.12;73.65;99052.72;5040275;28;20032;-77
2024/03/08 03:36:35;;;;;;;60.10;33.78;;;;;;;1.29;72.19;99062.03;5035057;28;20105;-78
2024/03/08 03:39:15;;;;;;;69.75;37.47;;;;;;;1.38;72.43;99055.69;5047196;28;20033;-78
2024/03/08 03:41:46;;;;;;;68.53;37.80;;;;;;;1.44;71.58;99065.44;5039754;28;20030;-79
2024/03/08 03:44:11;;;;;;;66.43;33.38;;;;;;;1.30;71.74;99066.31;5043736;28;20025;-77
2024/03/08 03:46:36;;;;;;;69.93;34.88;;;;;;;1.24;71.87;99060.97;5043430;28;20090;-78
2024/03/08 03:49:03;;;;;;;61.25;35.65;;;;;;;1.26;71.84;99061.59;5046421;28;20028;-78
2024/03/08 03:51:29;;;;;;;68.18;37.60;;;;;;;1.31;72.23;99065.28;5045392;28;20158;-77
2024/03/08 03:53:57;;;;;;;63.10;35.70;;;;;;;1.34;71.82;99062.31;5045833;28;20631;-78
2024/03/08 03:56:26;;;;;;;60.92;34.97;;;;;;;1.22;71.81;99061.13;5040258;28;20067;-77
2024/03/08 03:58:51;;;;;;;65.47;38.30;;;;;;;1.35;72.31;99060.50;5033355;28;20025;-78
2024/03/08 04:01:17;;;;;;;66.82;37.30;;;;;;;1.35;71.77;99056.06;5045683;28;20516;-79
2024/03/08 04:03:43;;;;;;;66.22;36.85;;;;;;;1.33;71.52;99054.63;5038941;28;20455;-77
2024/03/08 04:06:08;;;;;;;65.60;37.78;;;;;;;1.34;72.18;99050.97;5048607;28;20033;-76
2024/03/08 04:08:34;;;;;;;76.38;39.10;;;;;;;1.29;72.02;99046.25;5033836;28;20041;-77
2024/03/08 04:11:00;;;;;;;70.75;37.85;;;;;;;1.41;71.92;99047.44;5039060;28;20071;-77
2024/03/08 04:13:26;;;;;;;75.05;40.60;;;;;;;1.17;71.45;99046.94;5019762;28;20171;-77
2024/03/08 04:15:51;;;;;;;77.00;40.30;;;;;;;1.30;72.70;99034.75;5040305;28;20096;-76
2024/03/08 04:18:18;;;;;;;77.63;41.45;;;;;;;1.47;71.65;99056.38;5036850;28;20114;-77
2024/03/08 04:20:43;;;;;;;75.10;38.78;;;;;;;1.42;71.95;99035.09;5034511;28;20041;-75
2024/03/08 04:23:08;;;;;;;87.80;39.83;;;;;;;1.58;71.85;99044.56;5030773;28;20379;-76
2024/03/08 04:25:34;;;;;;;80.15;41.78;;;;;;;1.47;71.89;99044.06;5034618;28;20066;-76
2024/03/08 04:27:59;;;;;;;73.15;40.83;;;;;;;1.33;71.52;99029.13;5033331;28;20032;-76
2024/03/08 04:30:24;;;;;;;75.78;40.58;;;;;;;1.55;71.51;99040.50;5036691;28;20040;-75
2024/03/08 04:32:50;;;;;;;73.57;40.35;;;;;;;1.41;71.15;99033.47;5015563;28;20036;-77
2024/03/08 04:35:16;;;;;;;72.00;39.10;;;;;;;1.46;71.59;99045.03;5030121;28;20020;-77
2024/03/08 04:37:41;;;;;;;70.18;40.10;;;;;;;1.53;71.76;99045.94;5031623;28;20489;-76
2024/03/08 04:40:07;;;;;;;68.38;39.00;;;;;;;1.51;71.30;99050.56;5037980;28;20040;-75
2024/03/08 04:42:34;;;;;;;79.30;40.70;;;;;;;1.62;71.46;99046.63;5030744;28;20026;-76
2024/03/08 04:44:59;;;;;;;72.68;39.90;;;;;;;1.45;71.91;99043.44;5034640;28;20139;-75
2024/03/08 04:47:25;;;;;;;79.03;39.95;;;;;;;1.42;71.69;99037.72;5031809;28;20204;-76
2024/03/08 04:49:50;;;;;;;76.15;38.72;;;;;;;1.50;71.33;99032.34;5040200;28;20044;-76
2024/03/08 04:52:16;;;;;;;67.55;37.75;;;;;;;1.47;71.27;99033.53;5032402;28;20038;-76
2024/03/08 04:54:41;;;;;;;74.45;39.92;;;;;;;1.46;71.51;99036.34;5039411;28;20040;-75
2024/03/08 04:57:07;;;;;;;73.15;39.70;;;;;;;1.44;71.28;99020.75;5045665;28;20036;-76
2024/03/08 04:59:32;;;;;;;70.05;38.50;;;;;;;1.41;71.23;99029.03;5041536;28;20075;-76
2024/03/08 05:01:58;;;;;;;81.50;40.60;;;;;;;1.40;71.60;99016.03;5045630;28;20472;-76
2024/03/08 05:04:23;;;;;;;72.18;38.97;;;;;;;1.32;72.07;99034.56;5044882;28;20394;-76
2024/03/08 05:06:48;;;;;;;70.85;39.17;;;;;;;1.18;72.36;99030.16;5041175;28;20036;-76
2024/03/08 05:09:15;;;;;;;68.75;38.53;;;;;;;1.28;72.09;99030.69;5051188;28;20083;-75
2024/03/08 05:11:41;;;;;;;73.90;38.50;;;;;;;1.34;72.06;99022.03;5049567;28;20040;-75
2024/03/08 05:14:07;;;;;;;78.00;39.40;;;;;;;1.38;71.60;99029.38;5028517;28;20032;-76
2024/03/08 05:16:32;;;;;;;79.30;39.30;;;;;;;1.38;71.85;99026.75;5046237;28;20682;-76
2024/03/08 05:18:57;;;;;;;85.78;41.58;;;;;;;1.27;71.90;99015.91;5046347;28;20036;-76
2024/03/08 05:21:23;;;;;;;73.50;40.03;;;;;;;1.33;72.00;99023.06;5046481;28;20033;-76
2024/03/08 05:23:50;;;;;;;80.07;41.83;;;;;;;1.34;71.92;99019.41;5043365;28;20025;-77
2024/03/08 05:26:15;;;;;;;74.78;40.20;;;;;;;1.19;71.80;99001.06;5044793;28;20036;-77
2024/03/08 05:28:41;;;;;;;78.10;42.67;;;;;;;1.28;71.93;99012.28;5047334;28;20029;-78
2024/03/08 05:31:06;;;;;;;79.53;42.70;;;;;;;1.22;72.32;99013.81;5037665;28;20033;-76
2024/03/08 05:33:34;;;;;;;78.15;42.70;;;;;;;1.27;71.88;99011.47;5044056;28;20394;-77
2024/03/08 05:36:03;;;;;;;81.38;41.50;;;;;;;1.28;71.55;99010.47;5049276;28;20458;-78
2024/03/08 05:38:28;;;;;;;67.45;39.13;;;;;;;1.23;71.52;98997.06;5053311;28;20029;-77
2024/03/08 05:40:54;;;;;;;74.93;41.78;;;;;;;1.23;71.95;99002.31;5048140;28;20032;-78
2024/03/08 05:43:20;;;;;;;77.82;42.65;;;;;;;1.29;71.75;99008.66;5038234;28;20028;-77
2024/03/08 05:45:46;;;;;;;77.00;41.42;;;;;;;1.27;72.15;99000.94;5047700;28;20167;-77
2024/03/08 05:48:14;;;;;;;72.40;40.13;;;;;;;1.18;72.31;99007.31;5040115;28;20029;-77
2024/03/08 05:50:39;;;;;;;71.50;37.58;;;;;;;1.09;72.71;98997.88;5037771;28;20041;-76
2024/03/08 05:53:06;;;;;;;78.78;40.72;;;;;;;1.14;72.14;99011.31;5043305;28;20037;-75
2024/03/08 05:55:34;;;;;;;78.90;42.30;;;;;;;0.94;72.60;98989.22;5040632;28;20033;-77
2024/03/08 05:58:01;;;;;;;74.40;39.70;;;;;;;1.01;72.88;98998.00;5041236;28;20167;-77
2024/03/08 06:00:26;;;;;;;64.97;35.50;;;;;;;0.94;72.86;99007.63;5041953;28;20552;-76
2024/03/08 06:02:52;;;;;;;68.43;38.42;;;;;;;0.99;72.91;99015.78;5041901;28;20045;-76
2024/03/08 06:05:26;;;;;;;71.28;37.92;;;;;;;0.99;73.15;99005.25;5045476;28;20059;-77
2024/03/08 06:07:53;;;;;;;73.90;38.15;;;;;;;0.98;73.15;99008.91;5044447;28;20048;-76
2024/03/08 06:10:19;;;;;;;71.65;37.65;;;;;;;0.90;73.37;99003.72;5053646;28;20108;-76
2024/03/08 06:12:45;;;;;;;68.72;38.95;;;;;;;1.01;73.39;99016.41;5041643;28;20036;-78
2024/03/08 06:15:14;;;;;;;71.75;39.30;;;;;;;0.99;72.78;98991.31;5044916;28;20048;-77
2024/03/08 06:17:39;;;;;;;74.13;39.20;;;;;;;1.04;72.85;99002.91;5043749;28;20047;-76
2024/03/08 06:20:10;;;;;;;73.85;38.67;;;;;;;1.08;72.95;98991.03;5045494;28;20064;-78
2024/03/08 06:22:42;;;;;;;71.38;37.50;;;;;;;1.02;72.79;99006.72;5046242;28;20036;-77
2024/03/08 06:25:10;;;;;;;75.85;39.67;;;;;;;0.96;73.48;99012.72;5042714;28;20032;-77
2024/03/08 06:27:36;;;;;;;73.60;39.03;;;;;;;1.00;73.22;98995.56;5011924;28;20433;-77
2024/03/08 06:30:06;;;;;;;77.53;40.65;;;;;;;1.03;73.21;99003.06;5045798;28;20021;-77
2024/03/08 06:32:35;;;;;;;67.22;37.13;;;;;;;0.86;73.75;99002.47;5054833;28;20021;-77
2024/03/08 06:35:07;;;;;;;77.57;40.17;;;;;;;0.85;73.87;99015.78;5033744;28;20025;-77
2024/03/08 06:37:33;;;;;;;74.45;37.63;;;;;;;0.84;74.55;99012.34;5034302;28;20034;-77
2024/03/08 06:40:00;;;;;;;69.85;38.65;;;;;;;1.02;73.60;99001.47;5049944;28;20041;-76
2024/03/08 06:42:26;;;;;;;76.07;39.50;;;;;;;1.08;73.82;99009.41;5045600;28;20382;-77
2024/03/08 06:44:55;;;;;;;77.57;39.95;;;;;;;1.15;73.84;99010.31;5036709;28;20041;-77
2024/03/08 06:47:21;;;;;;;68.68;37.60;;;;;;;1.02;74.12;99004.09;5040602;28;20033;-77
2024/03/08 06:49:46;;;;;;;62.67;37.08;;;;;;;1.06;73.65;99000.91;5051186;28;20120;-78
2024/03/08 06:52:11;;;;;;;69.38;38.53;;;;;;;1.05;74.44;98999.25;5043121;28;20025;-76
2024/03/08 06:54:37;;;;;;;73.32;39.85;;;;;;;1.19;73.71;99006.31;5052165;28;20549;-77
2024/03/08 06:57:05;;;;;;;79.40;39.20;;;;;;;0.94;74.93;99004.19;5043703;28;20473;-77
2024/03/08 06:59:31;;;;;;;79.35;42.97;;;;;;;1.15;74.55;98999.81;5036346;28;20041;-77
2024/03/08 07:01:58;;;;;;;75.15;41.15;;;;;;;1.35;73.51;98997.41;5044843;28;20029;-78
2024/03/08 07:04:26;;;;;;;76.00;39.63;;;;;;;1.24;73.75;98990.81;5035169;28;20040;-77
2024/03/08 07:06:52;;;;;;;87.35;44.22;;;;;;;1.53;73.25;98995.97;5040196;28;20167;-77
2024/03/08 07:09:17;;;;;;;76.30;40.58;;;;;;;1.43;73.35;98999.91;5036233;28;20052;-77
2024/03/08 07:11:43;;;;;;;78.93;42.40;;;;;;;1.49;73.08;99007.03;5075235;28;20051;-77
2024/03/08 07:14:08;;;;;;;80.50;42.00;;;;;;;1.37;73.87;98998.84;5076003;28;20029;-78
2024/03/08 07:16:35;;;;;;;71.43;39.17;;;;;;;1.43;73.43;99002.53;5032284;28;20035;-78
2024/03/08 07:19:01;;;;;;;79.00;42.67;;;;;;;1.42;73.48;98993.03;5046666;28;20029;-78
2024/03/08 07:21:26;;;;;;;73.80;41.10;;;;;;;1.49;73.51;98997.34;5044908;28;20092;-78
2024/03/08 07:26:23;;;;;;;75.80;41.28;;;;;;;1.13;74.83;98999.19;5034987;28;20533;-77
2024/03/08 07:28:48;;;;;;;85.55;43.30;;;;;;;0.96;75.59;98991.69;5034928;28;20125;-78
2024/03/08 07:31:25;;;;;;;81.03;42.58;;;;;;;-0.15;79.13;98991.69;5022678;28;20032;-78
2024/03/08 07:33:53;;;;;;;88.50;45.60;;;;;;;-0.18;80.50;98986.81;5038430;28;20037;-77
2024/03/08 07:36:18;;;;;;;92.18;44.60;;;;;;;0.10;80.26;98999.34;5048367;28;20443;-77
2024/03/08 07:38:46;;;;;;;85.53;45.80;;;;;;;-0.33;82.12;99000.88;5034825;28;20033;-78
2024/03/08 07:41:12;;;;;;;103.07;47.35;;;;;;;-0.21;81.50;98992.41;5036415;28;20065;-77
2024/03/08 07:43:38;;;;;;;102.82;51.03;;;;;;;-0.41;83.22;98991.25;5053135;28;20037;-76
2024/03/08 07:46:03;;;;;;;96.47;49.85;;;;;;;-0.32;82.91;98974.47;5046516;28;20040;-76
2024/03/08 07:48:30;;;;;;;92.82;46.80;;;;;;;0.12;82.36;98979.81;5037699;28;20391;-78
2024/03/08 07:50:56;;;;;;;104.28;51.92;;;;;;;-0.36;82.67;98980.25;5036557;28;20026;-78
2024/03/08 07:53:21;;;;;;;103.60;49.17;;;;;;;-0.30;83.86;98982.97;5039712;28;20036;-77
2024/03/08 07:55:47;;;;;;;88.05;42.78;;;;;;;0.08;83.63;98970.69;5041496;28;20543;-76
2024/03/08 07:58:13;;;;;;;98.90;47.45;;;;;;;-0.15;83.23;98977.75;5036922;28;20029;-78
2024/03/08 08:00:39;;;;;;;96.00;46.42;;;;;;;-0.20;83.71;98980.91;5043348;28;20036;-77
2024/03/08 08:03:05;;;;;;;101.75;46.80;;;;;;;-0.04;83.69;98980.78;5035131;28;20413;-77
2024/03/08 08:05:35;;;;;;;91.95;46.38;;;;;;;0.42;82.36;98978.84;5038752;28;20388;-76
2024/03/08 08:08:02;;;;;;;91.60;46.10;;;;;;;0.49;81.08;98965.81;5034583;28;20116;-76
2024/03/08 08:10:28;;;;;;;86.28;44.75;;;;;;;0.65;81.33;98968.25;5017451;28;20029;-78
2024/03/08 08:12:54;;;;;;;82.85;44.60;;;;;;;0.16;82.00;98967.16;5035945;28;20044;-78
2024/03/08 08:15:20;;;;;;;91.88;47.10;;;;;;;-0.11;83.15;98968.56;5035033;28;20121;-78
2024/03/08 08:17:45;;;;;;;91.65;45.00;;;;;;;0.53;81.93;98967.91;5043168;28;20060;-77
2024/03/08 08:20:12;;;;;;;87.38;46.10;;;;;;;0.53;81.55;98964.44;5047740;28;20029;-76
2024/03/08 08:22:45;;;;;;;95.75;46.58;;;;;;;0.13;82.99;98963.09;5042567;28;20029;-77
2024/03/08 08:25:15;;;;;;;82.22;43.88;;;;;;;0.35;83.34;98958.75;5040767;28;20033;-78
2024/03/08 08:27:42;;;;;;;87.43;45.63;;;;;;;0.87;81.17;98956.81;5051931;28;20037;-77
2024/03/08 08:30:08;;;;;;;92.13;47.17;;;;;;;0.85;79.51;98943.06;5041331;28;20044;-77
2024/03/08 08:32:36;;;;;;;85.97;43.08;;;;;;;1.14;80.63;98963.16;5037599;28;20033;-78
2024/03/08 08:35:02;;;;;;;84.10;42.75;;;;;;;1.13;78.89;98958.94;5052089;28;20432;-76
2024/03/08 08:37:28;;;;;;;83.38;42.83;;;;;;;0.85;79.09;98955.38;5034608;28;20033;-78
2024/03/08 08:39:53;;;;;;;83.55;42.42;;;;;;;1.02;80.27;98954.16;5040430;28;20025;-77
2024/03/08 08:42:19;;;;;;;87.75;44.38;;;;;;;1.46;79.03;98955.63;5045073;28;20170;-76
2024/03/08 08:44:44;;;;;;;82.20;42.65;;;;;;;1.22;78.40;98945.47;5019753;28;20048;-77
2024/03/08 08:47:10;;;;;;;84.15;42.72;;;;;;;1.63;78.87;98940.44;5028226;28;20486;-78
2024/03/08 08:49:35;;;;;;;90.82;43.38;;;;;;;1.19;79.25;98937.97;5035935;28;20028;-76
2024/03/08 08:52:01;;;;;;;84.85;44.40;;;;;;;1.14;79.13;98919.31;5034341;28;20533;-78
2024/03/08 08:54:27;;;;;;;83.88;44.05;;;;;;;1.17;79.49;98926.00;5040244;28;20445;-77
2024/03/08 08:56:53;;;;;;;85.03;44.40;;;;;;;1.25;78.85;98923.25;5035989;28;20028;-77
2024/03/08 08:59:19;;;;;;;81.68;43.90;;;;;;;1.11;79.02;98914.44;5039332;28;20033;-77
2024/03/08 09:01:47;;;;;;;89.65;44.38;;;;;;;1.43;78.70;98915.75;5036895;28;20029;-77
2024/03/08 09:04:13;;;;;;;78.22;41.83;;;;;;;1.22;79.67;98915.75;5035273;28;20057;-77
2024/03/08 09:06:41;;;;;;;85.68;44.85;;;;;;;1.06;79.54;98903.69;5046293;28;20460;-78
2024/03/08 09:09:09;;;;;;;77.45;41.20;;;;;;;1.25;79.34;98896.97;5045681;28;20025;-77
2024/03/08 09:11:34;;;;;;;87.38;43.95;;;;;;;1.72;78.62;98906.91;5045146;28;20157;-77
2024/03/08 09:14:00;;;;;;;84.22;42.17;;;;;;;1.88;78.23;98898.75;5054624;28;20036;-78
2024/03/08 09:16:26;;;;;;;80.40;43.60;;;;;;;1.97;76.70;98902.81;5025957;28;20018;-76
2024/03/08 09:18:51;;;;;;;84.68;41.80;;;;;;;2.16;78.24;98897.69;5045392;28;20375;-77
2024/03/08 09:21:17;;;;;;;78.60;40.65;;;;;;;1.94;77.64;98898.78;5041395;28;20025;-76
2024/03/08 09:23:44;;;;;;;84.47;43.72;;;;;;;1.89;77.81;98900.34;5044145;28;20105;-77
2024/03/08 09:26:12;;;;;;;79.30;41.25;;;;;;;1.93;78.14;98899.78;5047774;28;20463;-77
2024/03/08 09:28:38;;;;;;;88.32;43.47;;;;;;;1.85;77.37;98894.66;5024377;28;20041;-77
2024/03/08 09:31:05;;;;;;;78.10;41.65;;;;;;;1.72;76.97;98897.19;5019658;28;20483;-76
2024/03/08 09:33:31;;;;;;;71.75;40.97;;;;;;;1.89;76.88;98885.38;5033644;28;20036;-76
2024/03/08 09:35:57;;;;;;;83.60;41.30;;;;;;;1.81;77.29;98880.28;5017693;28;20029;-77
2024/03/08 09:38:24;;;;;;;84.85;42.17;;;;;;;1.98;77.07;98883.41;5040361;28;20048;-77
2024/03/08 09:40:51;;;;;;;77.82;42.42;;;;;;;2.01;77.37;98859.34;5038051;28;20029;-78
2024/03/08 09:43:18;;;;;;;70.68;37.58;;;;;;;2.47;78.19;98863.00;5041755;28;20364;-78
2024/03/08 09:45:46;;;;;;;78.10;41.45;;;;;;;2.47;76.61;98864.84;5045606;28;20021;-76
2024/03/08 09:48:12;;;;;;;72.75;39.58;;;;;;;2.26;77.72;98861.31;5045325;28;20076;-78
2024/03/08 09:50:43;;;;;;;76.20;39.90;;;;;;;2.22;76.96;98865.34;5041017;28;20379;-77
2024/03/08 09:53:13;;;;;;;69.53;38.40;;;;;;;2.55;76.38;98865.50;5043114;28;20041;-78
2024/03/08 09:55:44;;;;;;;77.50;39.70;;;;;;;2.24;75.71;98849.34;5035449;28;20057;-78
2024/03/08 10:00:53;;;;;;;69.10;37.50;;;;;;;2.64;76.94;98842.41;5036172;28;20113;-76
2024/03/08 10:03:22;;;;;;;76.70;38.88;;;;;;;2.85;75.29;98824.63;5038125;28;20121;-77
2024/03/08 10:05:47;;;;;;;67.50;37.67;;;;;;;2.78;75.17;98829.06;5044591;28;20194;-77
2024/03/08 10:08:13;;;;;;;69.80;35.47;;;;;;;2.64;74.51;98816.88;5039099;28;20129;-77
2024/03/08 10:10:39;;;;;;;62.95;37.90;;;;;;;2.88;74.89;98824.22;5046446;28;20136;-77
2024/03/08 10:13:08;;;;;;;67.78;38.38;;;;;;;2.83;75.28;98810.03;5047169;28;20029;-77
2024/03/08 10:15:33;;;;;;;70.50;37.67;;;;;;;2.84;74.68;98816.94;5039529;28;20055;-78
2024/03/08 10:17:59;;;;;;;63.72;37.42;;;;;;;2.74;73.93;98804.13;5043221;28;20540;-76
2024/03/08 10:20:26;;;;;;;68.43;37.97;;;;;;;2.76;74.33;98796.84;5048660;28;20533;-77
2024/03/08 10:22:55;;;;;;;73.35;37.83;;;;;;;2.99;74.62;98799.91;5045585;28;20052;-76
2024/03/08 10:25:20;;;;;;;62.00;35.58;;;;;;;3.11;74.91;98796.66;5048745;28;20048;-76
2024/03/08 10:27:46;;;;;;;66.22;36.70;;;;;;;3.07;73.60;98790.19;5041789;28;20489;-77
2024/03/08 10:30:19;;;;;;;61.13;32.92;;;;;;;3.17;73.33;98785.34;5046535;28;20043;-76
2024/03/08 10:32:45;;;;;;;55.00;32.13;;;;;;;3.19;72.71;98778.81;5041604;28;20026;-77
2024/03/08 10:35:12;;;;;;;61.25;34.17;;;;;;;3.11;72.73;98791.41;5050204;28;20032;-77
2024/03/08 10:37:45;;;;;;;61.78;35.78;;;;;;;2.91;72.11;98765.03;5053853;28;20033;-77
2024/03/08 10:40:17;;;;;;;64.57;35.00;;;;;;;3.31;74.57;98777.22;5040673;28;20047;-77
2024/03/08 10:42:58;;;;;;;57.03;31.92;;;;;;;3.49;73.77;98785.31;5040076;28;20060;-77
2024/03/08 10:45:43;;;;;;;58.03;33.13;;;;;;;3.49;73.80;98773.97;5045924;28;20025;-78
2024/03/08 10:48:35;;;;;;;58.78;32.13;;;;;;;3.26;73.03;98758.53;5047688;28;20044;-77
2024/03/08 10:51:04;;;;;;;61.90;36.70;;;;;;;3.43;73.07;98770.28;5036567;28;20151;-76
2024/03/08 10:53:30;;;;;;;63.00;34.08;;;;;;;3.38;72.66;98764.03;5036150;28;20087;-78
2024/03/08 10:55:57;;;;;;;61.40;34.17;;;;;;;3.48;72.13;98753.84;5039028;28;20030;-78
2024/03/08 10:58:26;;;;;;;58.42;33.75;;;;;;;3.50;72.46;98738.63;5039839;28;20029;-78
2024/03/08 11:00:56;;;;;;;57.65;32.67;;;;;;;3.61;73.21;98748.56;5041497;28;20028;-77
2024/03/08 11:03:40;;;;;;;59.10;34.50;;;;;;;3.96;72.47;98741.97;5021518;28;20546;-77
2024/03/08 11:06:07;;;;;;;54.28;30.35;;;;;;;3.75;72.01;98747.53;5038095;28;20393;-77
2024/03/08 11:08:33;;;;;;;55.75;31.02;;;;;;;3.72;72.24;98742.63;5038504;28;20053;-76
2024/03/08 11:10:59;;;;;;;55.97;31.35;;;;;;;3.92;72.40;98737.31;5040282;28;20161;-76
2024/03/08 11:13:41;;;;;;;56.45;31.70;;;;;;;4.14;72.94;98734.19;5034963;28;20029;-76
2024/03/08 11:16:32;;;;;;;59.88;31.85;;;;;;;3.95;70.43;98729.78;5039428;28;20053;-76
2024/03/08 11:19:10;;;;;;;55.35;31.00;;;;;;;4.17;71.67;98731.09;5044260;28;20021;-76
2024/03/08 11:21:39;;;;;;;56.55;32.72;;;;;;;4.23;71.03;98725.00;5049116;28;20104;-77
2024/03/08 11:24:14;;;;;;;58.85;32.90;;;;;;;4.38;71.31;98732.63;5045321;28;20035;-77
2024/03/08 11:26:45;;;;;;;51.08;29.40;;;;;;;4.23;69.74;98711.78;5036712;28;20371;-77
2024/03/08 11:29:32;;;;;;;51.63;29.83;;;;;;;4.56;70.45;98720.31;5045524;28;20116;-77
2024/03/08 11:32:27;;;;;;;50.45;28.33;;;;;;;4.84;69.98;98712.00;5043418;28;20112;-77
2024/03/08 11:34:53;;;;;;;51.55;31.10;;;;;;;4.75;69.79;98709.84;5038772;28;20043;-78
2024/03/08 11:37:23;;;;;;;58.50;31.15;;;;;;;4.85;70.34;98715.47;5035138;28;20374;-76
2024/03/08 11:39:50;;;;;;;54.53;29.92;;;;;;;5.16;70.02;98700.34;5033422;28;20025;-77
2024/03/08 11:42:17;;;;;;;57.10;30.33;;;;;;;5.19;69.97;98709.69;5038611;28;20036;-76
2024/03/08 11:44:44;;;;;;;51.45;30.60;;;;;;;4.95;69.85;98706.03;5039289;28;20057;-77
2024/03/08 11:47:10;;;;;;;50.58;29.48;;;;;;;4.74;69.53;98703.72;5031487;28;20127;-77
2024/03/08 11:49:36;;;;;;;46.42;28.27;;;;;;;4.73;68.91;98702.13;5045429;28;20021;-77
2024/03/08 11:52:02;;;;;;;50.47;29.77;;;;;;;4.92;70.56;98687.13;5040389;28;20039;-77
2024/03/08 11:54:29;;;;;;;56.45;30.27;;;;;;;4.76;69.38;98685.81;5038734;28;20025;-76
2024/03/08 11:57:00;;;;;;;50.47;30.33;;;;;;;4.57;69.39;98690.22;5042119;28;20497;-76
2024/03/08 11:59:27;;;;;;;56.15;31.65;;;;;;;5.09;70.52;98693.47;5032894;28;20409;-76